Kobrin, Belarus
Current Conditions -  °F | °C
As of 11:00 AM on Sunday 21 Dec 2014 (Local Time) from UMBB Reporting Station
Overcast Overcast  
Wind Chill: 28°   Ceiling: 1400
Heat Index: 37°   Visibility: 6mi
Dew Point: 34°   Wind: 16mph
Humidity: 87%   Direction: 270°W
Pressure: 29.83"   Gusts: 27mph
Location:  52.21°N, 24.36°E
Report Text: UMBB 210900Z 27007G12MPS 9000 OVC014CB 03/01 Q1010 NOSIG
Loading
Personal Weather Stations






























Interactive Weather Map New forecast layout! Learn more

10-Day Weather Forecast

Advertisements
Track Severe Weather on mobile